sensor_id;sensor_type;location;lat;lon;timestamp;temperature;humidity
25450;DHT22;13371;52.080;5.624;2023-05-24T00:02:07;11.90;90.80
25450;DHT22;13371;52.080;5.624;2023-05-24T00:04:33;11.80;90.90
25450;DHT22;13371;52.080;5.624;2023-05-24T00:06:59;11.70;90.80
25450;DHT22;13371;52.080;5.624;2023-05-24T00:09:28;11.60;91.10
25450;DHT22;13371;52.080;5.624;2023-05-24T00:11:54;11.80;90.80
25450;DHT22;13371;52.080;5.624;2023-05-24T00:14:19;11.70;90.80
25450;DHT22;13371;52.080;5.624;2023-05-24T00:16:45;11.80;90.80
25450;DHT22;13371;52.080;5.624;2023-05-24T00:19:10;11.70;90.80
25450;DHT22;13371;52.080;5.624;2023-05-24T00:21:36;11.60;90.90
25450;DHT22;13371;52.080;5.624;2023-05-24T00:24:02;11.50;91.40
25450;DHT22;13371;52.080;5.624;2023-05-24T00:26:27;11.50;91.30
25450;DHT22;13371;52.080;5.624;2023-05-24T00:28:53;11.60;91.00
25450;DHT22;13371;52.080;5.624;2023-05-24T00:31:18;11.50;91.30
25450;DHT22;13371;52.080;5.624;2023-05-24T00:33:44;11.50;91.10
25450;DHT22;13371;52.080;5.624;2023-05-24T00:36:10;11.50;90.70
25450;DHT22;13371;52.080;5.624;2023-05-24T00:38:35;11.50;91.10
25450;DHT22;13371;52.080;5.624;2023-05-24T00:41:01;11.50;90.90
25450;DHT22;13371;52.080;5.624;2023-05-24T00:43:26;11.40;91.40
25450;DHT22;13371;52.080;5.624;2023-05-24T00:48:41;11.10;91.80
25450;DHT22;13371;52.080;5.624;2023-05-24T00:51:07;11.00;92.10
25450;DHT22;13371;52.080;5.624;2023-05-24T00:53:34;10.90;92.80
25450;DHT22;13371;52.080;5.624;2023-05-24T00:56:02;11.00;92.20
25450;DHT22;13371;52.080;5.624;2023-05-24T00:58:29;10.90;92.20
25450;DHT22;13371;52.080;5.624;2023-05-24T01:00:58;10.90;92.10
25450;DHT22;13371;52.080;5.624;2023-05-24T01:03:24;11.00;92.00
25450;DHT22;13371;52.080;5.624;2023-05-24T01:05:54;11.00;92.00
25450;DHT22;13371;52.080;5.624;2023-05-24T01:14:11;11.00;91.10
25450;DHT22;13371;52.080;5.624;2023-05-24T01:19:41;11.00;91.50
25450;DHT22;13371;52.080;5.624;2023-05-24T01:22:36;10.90;91.50
25450;DHT22;13371;52.080;5.624;2023-05-24T01:27:57;10.80;91.40
25450;DHT22;13371;52.080;5.624;2023-05-24T01:30:25;10.50;92.00
25450;DHT22;13371;52.080;5.624;2023-05-24T01:32:51;10.40;92.50
25450;DHT22;13371;52.080;5.624;2023-05-24T01:35:17;10.40;92.40
25450;DHT22;13371;52.080;5.624;2023-05-24T01:37:42;10.60;92.30
25450;DHT22;13371;52.080;5.624;2023-05-24T01:40:09;10.60;92.20
25450;DHT22;13371;52.080;5.624;2023-05-24T01:43:04;10.60;92.10
25450;DHT22;13371;52.080;5.624;2023-05-24T01:51:35;10.60;91.90
25450;DHT22;13371;52.080;5.624;2023-05-24T01:54:03;10.50;92.00
25450;DHT22;13371;52.080;5.624;2023-05-24T01:56:31;10.60;91.80
25450;DHT22;13371;52.080;5.624;2023-05-24T01:58:58;10.70;91.80
25450;DHT22;13371;52.080;5.624;2023-05-24T02:01:25;10.50;92.00
25450;DHT22;13371;52.080;5.624;2023-05-24T02:03:51;10.60;91.90
25450;DHT22;13371;52.080;5.624;2023-05-24T02:06:17;10.40;92.10
25450;DHT22;13371;52.080;5.624;2023-05-24T02:08:42;10.50;92.20
25450;DHT22;13371;52.080;5.624;2023-05-24T02:11:08;10.60;92.00
25450;DHT22;13371;52.080;5.624;2023-05-24T02:13:33;10.50;92.00
25450;DHT22;13371;52.080;5.624;2023-05-24T02:15:59;10.50;92.20
25450;DHT22;13371;52.080;5.624;2023-05-24T02:18:24;10.40;92.20
25450;DHT22;13371;52.080;5.624;2023-05-24T02:20:50;10.40;92.40
25450;DHT22;13371;52.080;5.624;2023-05-24T02:23:15;10.40;92.40
25450;DHT22;13371;52.080;5.624;2023-05-24T02:25:41;10.20;92.50
25450;DHT22;13371;52.080;5.624;2023-05-24T02:28:07;10.20;92.70
25450;DHT22;13371;52.080;5.624;2023-05-24T02:30:32;10.30;92.70
25450;DHT22;13371;52.080;5.624;2023-05-24T02:32:58;10.40;92.30
25450;DHT22;13371;52.080;5.624;2023-05-24T02:35:25;10.30;92.40
25450;DHT22;13371;52.080;5.624;2023-05-24T02:37:51;10.30;92.30
25450;DHT22;13371;52.080;5.624;2023-05-24T02:40:16;10.40;92.40
25450;DHT22;13371;52.080;5.624;2023-05-24T02:42:42;10.40;92.30
25450;DHT22;13371;52.080;5.624;2023-05-24T02:45:07;10.50;92.30
25450;DHT22;13371;52.080;5.624;2023-05-24T02:47:33;10.30;92.30
25450;DHT22;13371;52.080;5.624;2023-05-24T02:49:59;10.10;92.40
25450;DHT22;13371;52.080;5.624;2023-05-24T02:52:26;10.10;92.60
25450;DHT22;13371;52.080;5.624;2023-05-24T02:54:52;10.10;92.90
25450;DHT22;13371;52.080;5.624;2023-05-24T02:57:17;10.20;92.70
25450;DHT22;13371;52.080;5.624;2023-05-24T02:59:43;10.20;92.60
25450;DHT22;13371;52.080;5.624;2023-05-24T03:02:09;10.20;92.60
25450;DHT22;13371;52.080;5.624;2023-05-24T03:04:38;10.10;92.70
25450;DHT22;13371;52.080;5.624;2023-05-24T03:07:03;10.30;92.60
25450;DHT22;13371;52.080;5.624;2023-05-24T03:09:29;10.20;92.50
25450;DHT22;13371;52.080;5.624;2023-05-24T03:11:54;9.90;92.60
25450;DHT22;13371;52.080;5.624;2023-05-24T03:14:20;10.00;92.80
25450;DHT22;13371;52.080;5.624;2023-05-24T03:16:48;10.20;92.60
25450;DHT22;13371;52.080;5.624;2023-05-24T03:19:14;10.30;92.80
25450;DHT22;13371;52.080;5.624;2023-05-24T03:21:42;10.10;92.30
25450;DHT22;13371;52.080;5.624;2023-05-24T03:24:07;10.10;92.60
25450;DHT22;13371;52.080;5.624;2023-05-24T03:26:33;10.00;92.90
25450;DHT22;13371;52.080;5.624;2023-05-24T03:28:59;10.00;92.80
25450;DHT22;13371;52.080;5.624;2023-05-24T03:31:25;10.00;92.90
25450;DHT22;13371;52.080;5.624;2023-05-24T03:33:51;10.00;92.90
25450;DHT22;13371;52.080;5.624;2023-05-24T03:36:17;9.70;93.40
25450;DHT22;13371;52.080;5.624;2023-05-24T03:38:42;9.70;93.50
25450;DHT22;13371;52.080;5.624;2023-05-24T03:41:08;9.90;93.40
25450;DHT22;13371;52.080;5.624;2023-05-24T03:43:33;9.90;93.10
25450;DHT22;13371;52.080;5.624;2023-05-24T03:45:59;9.90;92.90
25450;DHT22;13371;52.080;5.624;2023-05-24T03:48:25;9.70;93.20
25450;DHT22;13371;52.080;5.624;2023-05-24T03:50:50;9.70;93.60
25450;DHT22;13371;52.080;5.624;2023-05-24T03:53:16;9.90;93.20
25450;DHT22;13371;52.080;5.624;2023-05-24T03:55:41;9.80;93.30
25450;DHT22;13371;52.080;5.624;2023-05-24T03:58:07;9.80;93.30
25450;DHT22;13371;52.080;5.624;2023-05-24T04:00:32;9.70;93.60
25450;DHT22;13371;52.080;5.624;2023-05-24T04:02:58;9.80;93.40
25450;DHT22;13371;52.080;5.624;2023-05-24T04:05:25;9.80;93.40
25450;DHT22;13371;52.080;5.624;2023-05-24T04:07:54;9.90;93.40
25450;DHT22;13371;52.080;5.624;2023-05-24T04:10:19;10.00;93.10
25450;DHT22;13371;52.080;5.624;2023-05-24T04:12:45;10.00;93.20
25450;DHT22;13371;52.080;5.624;2023-05-24T04:15:11;9.90;93.20
25450;DHT22;13371;52.080;5.624;2023-05-24T04:17:43;9.90;93.40
25450;DHT22;13371;52.080;5.624;2023-05-24T04:20:10;9.90;93.40
25450;DHT22;13371;52.080;5.624;2023-05-24T04:22:36;9.90;93.40
25450;DHT22;13371;52.080;5.624;2023-05-24T04:25:02;10.00;93.20
25450;DHT22;13371;52.080;5.624;2023-05-24T04:27:34;10.00;93.30
25450;DHT22;13371;52.080;5.624;2023-05-24T04:30:00;9.90;93.40
25450;DHT22;13371;52.080;5.624;2023-05-24T04:32:26;9.90;93.40
25450;DHT22;13371;52.080;5.624;2023-05-24T04:34:54;9.90;93.60
25450;DHT22;13371;52.080;5.624;2023-05-24T04:37:20;9.90;93.70
25450;DHT22;13371;52.080;5.624;2023-05-24T04:39:46;9.90;93.80
25450;DHT22;13371;52.080;5.624;2023-05-24T04:42:14;10.00;93.80
25450;DHT22;13371;52.080;5.624;2023-05-24T04:44:40;10.00;93.90
25450;DHT22;13371;52.080;5.624;2023-05-24T04:47:06;10.00;93.60
25450;DHT22;13371;52.080;5.624;2023-05-24T04:49:31;9.90;94.00
25450;DHT22;13371;52.080;5.624;2023-05-24T04:51:57;10.10;94.00
25450;DHT22;13371;52.080;5.624;2023-05-24T04:54:23;10.00;94.00
25450;DHT22;13371;52.080;5.624;2023-05-24T04:56:49;10.10;94.10
25450;DHT22;13371;52.080;5.624;2023-05-24T04:59:14;10.00;94.10
25450;DHT22;13371;52.080;5.624;2023-05-24T05:01:40;10.10;94.10
25450;DHT22;13371;52.080;5.624;2023-05-24T05:04:07;10.20;94.30
25450;DHT22;13371;52.080;5.624;2023-05-24T05:06:32;10.30;94.20
25450;DHT22;13371;52.080;5.624;2023-05-24T05:09:06;10.30;94.40
25450;DHT22;13371;52.080;5.624;2023-05-24T05:11:37;10.30;94.60
25450;DHT22;13371;52.080;5.624;2023-05-24T05:14:02;10.40;94.80
25450;DHT22;13371;52.080;5.624;2023-05-24T05:16:28;10.60;95.00
25450;DHT22;13371;52.080;5.624;2023-05-24T05:18:54;10.70;95.70
25450;DHT22;13371;52.080;5.624;2023-05-24T05:21:19;10.80;96.50
25450;DHT22;13371;52.080;5.624;2023-05-24T05:23:45;10.60;97.40
25450;DHT22;13371;52.080;5.624;2023-05-24T05:26:21;10.80;97.40
25450;DHT22;13371;52.080;5.624;2023-05-24T05:28:46;11.00;97.70
25450;DHT22;13371;52.080;5.624;2023-05-24T05:31:12;11.40;97.80
25450;DHT22;13371;52.080;5.624;2023-05-24T05:33:37;11.40;98.30
25450;DHT22;13371;52.080;5.624;2023-05-24T05:36:03;11.60;98.80
25450;DHT22;13371;52.080;5.624;2023-05-24T05:38:29;11.70;99.30
25450;DHT22;13371;52.080;5.624;2023-05-24T05:40:54;12.00;99.20
25450;DHT22;13371;52.080;5.624;2023-05-24T05:43:20;12.10;99.30
25450;DHT22;13371;52.080;5.624;2023-05-24T05:45:45;12.30;99.50
25450;DHT22;13371;52.080;5.624;2023-05-24T05:48:11;12.30;99.30
25450;DHT22;13371;52.080;5.624;2023-05-24T05:50:36;12.50;99.10
25450;DHT22;13371;52.080;5.624;2023-05-24T05:53:02;12.70;99.30
25450;DHT22;13371;52.080;5.624;2023-05-24T05:55:27;12.80;99.10
25450;DHT22;13371;52.080;5.624;2023-05-24T05:57:53;12.90;99.30
25450;DHT22;13371;52.080;5.624;2023-05-24T06:00:20;13.00;99.30
25450;DHT22;13371;52.080;5.624;2023-05-24T06:02:46;13.10;99.00
25450;DHT22;13371;52.080;5.624;2023-05-24T06:05:11;13.10;99.20
25450;DHT22;13371;52.080;5.624;2023-05-24T06:07:37;13.10;99.30
25450;DHT22;13371;52.080;5.624;2023-05-24T06:10:03;13.10;99.70
25450;DHT22;13371;52.080;5.624;2023-05-24T06:12:28;13.20;99.60
25450;DHT22;13371;52.080;5.624;2023-05-24T06:14:54;13.30;99.60
25450;DHT22;13371;52.080;5.624;2023-05-24T06:17:22;13.40;99.20
25450;DHT22;13371;52.080;5.624;2023-05-24T06:19:51;13.50;98.90
25450;DHT22;13371;52.080;5.624;2023-05-24T06:22:20;13.70;98.60
25450;DHT22;13371;52.080;5.624;2023-05-24T06:24:46;13.90;98.60
25450;DHT22;13371;52.080;5.624;2023-05-24T06:27:11;13.80;98.40
25450;DHT22;13371;52.080;5.624;2023-05-24T06:29:37;14.00;98.50
25450;DHT22;13371;52.080;5.624;2023-05-24T06:32:03;14.10;98.20
25450;DHT22;13371;52.080;5.624;2023-05-24T06:34:28;14.00;97.70
25450;DHT22;13371;52.080;5.624;2023-05-24T06:36:54;13.90;98.10
25450;DHT22;13371;52.080;5.624;2023-05-24T06:39:20;13.90;97.70
25450;DHT22;13371;52.080;5.624;2023-05-24T06:41:52;13.80;97.30
25450;DHT22;13371;52.080;5.624;2023-05-24T06:44:20;13.90;97.70
25450;DHT22;13371;52.080;5.624;2023-05-24T06:46:47;14.00;97.80
25450;DHT22;13371;52.080;5.624;2023-05-24T06:49:13;14.20;97.70
25450;DHT22;13371;52.080;5.624;2023-05-24T06:51:39;14.30;97.00
25450;DHT22;13371;52.080;5.624;2023-05-24T06:54:04;14.50;96.60
25450;DHT22;13371;52.080;5.624;2023-05-24T06:56:30;14.70;95.70
25450;DHT22;13371;52.080;5.624;2023-05-24T06:58:58;14.60;96.20
25450;DHT22;13371;52.080;5.624;2023-05-24T07:01:24;14.70;95.60
25450;DHT22;13371;52.080;5.624;2023-05-24T07:03:49;14.70;95.70
25450;DHT22;13371;52.080;5.624;2023-05-24T07:06:15;15.00;95.00
25450;DHT22;13371;52.080;5.624;2023-05-24T07:08:41;15.30;95.30
25450;DHT22;13371;52.080;5.624;2023-05-24T07:11:07;15.40;94.90
25450;DHT22;13371;52.080;5.624;2023-05-24T07:13:33;15.40;94.70
25450;DHT22;13371;52.080;5.624;2023-05-24T07:15:59;15.50;94.00
25450;DHT22;13371;52.080;5.624;2023-05-24T07:18:24;15.50;94.20
25450;DHT22;13371;52.080;5.624;2023-05-24T07:20:50;15.60;93.80
25450;DHT22;13371;52.080;5.624;2023-05-24T07:23:16;15.70;93.50
25450;DHT22;13371;52.080;5.624;2023-05-24T07:25:41;15.80;93.70
25450;DHT22;13371;52.080;5.624;2023-05-24T07:28:07;15.80;93.10
25450;DHT22;13371;52.080;5.624;2023-05-24T07:30:33;15.70;93.40
25450;DHT22;13371;52.080;5.624;2023-05-24T07:32:59;15.70;93.50
25450;DHT22;13371;52.080;5.624;2023-05-24T07:35:25;15.80;93.40
25450;DHT22;13371;52.080;5.624;2023-05-24T07:37:51;15.70;93.70
25450;DHT22;13371;52.080;5.624;2023-05-24T07:40:16;15.80;93.80
25450;DHT22;13371;52.080;5.624;2023-05-24T07:42:42;16.00;93.10
25450;DHT22;13371;52.080;5.624;2023-05-24T07:45:08;16.10;92.80
25450;DHT22;13371;52.080;5.624;2023-05-24T07:47:35;16.20;92.80
25450;DHT22;13371;52.080;5.624;2023-05-24T07:50:00;16.20;92.30
25450;DHT22;13371;52.080;5.624;2023-05-24T07:52:26;16.40;92.70
25450;DHT22;13371;52.080;5.624;2023-05-24T07:54:52;16.60;92.50
25450;DHT22;13371;52.080;5.624;2023-05-24T07:57:18;16.40;91.20
25450;DHT22;13371;52.080;5.624;2023-05-24T07:59:44;16.60;91.00
25450;DHT22;13371;52.080;5.624;2023-05-24T08:02:10;16.60;90.90
25450;DHT22;13371;52.080;5.624;2023-05-24T08:04:40;16.40;91.20
25450;DHT22;13371;52.080;5.624;2023-05-24T08:07:05;16.10;90.50
25450;DHT22;13371;52.080;5.624;2023-05-24T08:09:32;15.80;90.80
25450;DHT22;13371;52.080;5.624;2023-05-24T08:12:03;16.00;91.20
25450;DHT22;13371;52.080;5.624;2023-05-24T08:14:29;16.40;92.20
25450;DHT22;13371;52.080;5.624;2023-05-24T08:16:55;16.70;92.00
25450;DHT22;13371;52.080;5.624;2023-05-24T08:19:20;17.00;91.20
25450;DHT22;13371;52.080;5.624;2023-05-24T08:21:46;17.10;91.10
25450;DHT22;13371;52.080;5.624;2023-05-24T08:24:11;17.20;89.40
25450;DHT22;13371;52.080;5.624;2023-05-24T08:26:37;17.00;89.50
25450;DHT22;13371;52.080;5.624;2023-05-24T08:29:03;17.00;89.80
25450;DHT22;13371;52.080;5.624;2023-05-24T08:31:29;17.20;89.10
25450;DHT22;13371;52.080;5.624;2023-05-24T08:33:57;17.00;86.70
25450;DHT22;13371;52.080;5.624;2023-05-24T08:36:40;17.00;89.30
25450;DHT22;13371;52.080;5.624;2023-05-24T08:39:08;17.00;88.60
25450;DHT22;13371;52.080;5.624;2023-05-24T08:41:34;17.20;88.80
25450;DHT22;13371;52.080;5.624;2023-05-24T08:44:04;17.20;88.70
25450;DHT22;13371;52.080;5.624;2023-05-24T08:46:31;17.40;88.40
25450;DHT22;13371;52.080;5.624;2023-05-24T08:48:58;17.60;89.50
25450;DHT22;13371;52.080;5.624;2023-05-24T08:51:25;18.10;89.30
25450;DHT22;13371;52.080;5.624;2023-05-24T08:53:52;18.30;86.60
25450;DHT22;13371;52.080;5.624;2023-05-24T08:56:18;18.30;83.10
25450;DHT22;13371;52.080;5.624;2023-05-24T08:58:45;18.20;84.40
25450;DHT22;13371;52.080;5.624;2023-05-24T09:01:13;17.90;83.60
25450;DHT22;13371;52.080;5.624;2023-05-24T09:03:39;17.70;87.20
25450;DHT22;13371;52.080;5.624;2023-05-24T09:06:07;17.60;88.20
25450;DHT22;13371;52.080;5.624;2023-05-24T09:08:33;17.40;87.50
25450;DHT22;13371;52.080;5.624;2023-05-24T09:11:01;17.20;89.30
25450;DHT22;13371;52.080;5.624;2023-05-24T09:13:27;17.00;89.50
25450;DHT22;13371;52.080;5.624;2023-05-24T09:15:54;17.00;90.20
25450;DHT22;13371;52.080;5.624;2023-05-24T09:18:20;16.90;87.80
25450;DHT22;13371;52.080;5.624;2023-05-24T09:20:45;17.10;88.20
25450;DHT22;13371;52.080;5.624;2023-05-24T09:23:11;17.00;88.20
25450;DHT22;13371;52.080;5.624;2023-05-24T09:25:43;17.30;88.10
25450;DHT22;13371;52.080;5.624;2023-05-24T09:28:12;17.20;86.50
25450;DHT22;13371;52.080;5.624;2023-05-24T09:30:42;17.20;85.90
25450;DHT22;13371;52.080;5.624;2023-05-24T09:33:07;17.30;86.00
25450;DHT22;13371;52.080;5.624;2023-05-24T09:35:33;17.40;86.70
25450;DHT22;13371;52.080;5.624;2023-05-24T09:38:01;17.60;86.90
25450;DHT22;13371;52.080;5.624;2023-05-24T09:40:28;17.50;85.00
25450;DHT22;13371;52.080;5.624;2023-05-24T09:43:08;17.30;84.20
25450;DHT22;13371;52.080;5.624;2023-05-24T09:48:09;16.90;87.80
25450;DHT22;13371;52.080;5.624;2023-05-24T09:50:35;17.00;88.40
25450;DHT22;13371;52.080;5.624;2023-05-24T09:53:01;17.30;87.80
25450;DHT22;13371;52.080;5.624;2023-05-24T09:55:27;17.40;87.00
25450;DHT22;13371;52.080;5.624;2023-05-24T09:58:04;17.40;88.30
25450;DHT22;13371;52.080;5.624;2023-05-24T10:00:34;17.60;87.80
25450;DHT22;13371;52.080;5.624;2023-05-24T10:03:03;17.50;85.10
25450;DHT22;13371;52.080;5.624;2023-05-24T10:05:29;17.30;85.70
25450;DHT22;13371;52.080;5.624;2023-05-24T10:07:56;17.50;86.70
25450;DHT22;13371;52.080;5.624;2023-05-24T10:10:27;17.60;86.20
25450;DHT22;13371;52.080;5.624;2023-05-24T10:12:55;17.80;83.90
25450;DHT22;13371;52.080;5.624;2023-05-24T10:15:21;17.90;84.90
25450;DHT22;13371;52.080;5.624;2023-05-24T10:17:46;18.00;82.10
25450;DHT22;13371;52.080;5.624;2023-05-24T10:20:12;18.40;83.20
25450;DHT22;13371;52.080;5.624;2023-05-24T10:22:42;18.60;84.00
25450;DHT22;13371;52.080;5.624;2023-05-24T10:25:12;18.60;84.10
25450;DHT22;13371;52.080;5.624;2023-05-24T10:27:40;18.70;82.90
25450;DHT22;13371;52.080;5.624;2023-05-24T10:30:15;18.20;82.50
25450;DHT22;13371;52.080;5.624;2023-05-24T10:32:45;18.30;84.60
25450;DHT22;13371;52.080;5.624;2023-05-24T10:35:13;18.30;83.50
25450;DHT22;13371;52.080;5.624;2023-05-24T10:37:45;18.20;83.50
25450;DHT22;13371;52.080;5.624;2023-05-24T10:40:21;17.90;82.30
25450;DHT22;13371;52.080;5.624;2023-05-24T10:42:50;18.00;83.10
25450;DHT22;13371;52.080;5.624;2023-05-24T10:45:32;18.00;84.10
25450;DHT22;13371;52.080;5.624;2023-05-24T10:50:48;17.80;83.00
25450;DHT22;13371;52.080;5.624;2023-05-24T10:53:21;17.80;83.40
25450;DHT22;13371;52.080;5.624;2023-05-24T10:55:55;17.90;83.90
25450;DHT22;13371;52.080;5.624;2023-05-24T10:58:26;18.00;82.80
25450;DHT22;13371;52.080;5.624;2023-05-24T11:00:54;18.00;83.30
25450;DHT22;13371;52.080;5.624;2023-05-24T11:03:22;18.00;83.80
25450;DHT22;13371;52.080;5.624;2023-05-24T11:05:51;18.10;82.50
25450;DHT22;13371;52.080;5.624;2023-05-24T11:08:34;18.00;82.30
25450;DHT22;13371;52.080;5.624;2023-05-24T11:11:07;18.00;82.30
25450;DHT22;13371;52.080;5.624;2023-05-24T11:13:35;18.00;84.10
25450;DHT22;13371;52.080;5.624;2023-05-24T11:16:02;18.10;82.70
25450;DHT22;13371;52.080;5.624;2023-05-24T11:18:28;18.30;82.80
25450;DHT22;13371;52.080;5.624;2023-05-24T11:20:53;18.10;80.90
25450;DHT22;13371;52.080;5.624;2023-05-24T11:23:21;18.50;82.30
25450;DHT22;13371;52.080;5.624;2023-05-24T11:25:47;18.40;80.80
25450;DHT22;13371;52.080;5.624;2023-05-24T11:28:13;18.30;81.70
25450;DHT22;13371;52.080;5.624;2023-05-24T11:30:40;18.10;82.10
25450;DHT22;13371;52.080;5.624;2023-05-24T11:33:19;18.40;82.40
25450;DHT22;13371;52.080;5.624;2023-05-24T11:35:50;18.30;81.60
25450;DHT22;13371;52.080;5.624;2023-05-24T11:38:17;18.30;82.10
25450;DHT22;13371;52.080;5.624;2023-05-24T11:40:45;18.10;80.60
25450;DHT22;13371;52.080;5.624;2023-05-24T11:43:12;18.30;83.60
25450;DHT22;13371;52.080;5.624;2023-05-24T11:45:43;18.20;81.90
25450;DHT22;13371;52.080;5.624;2023-05-24T11:48:10;18.10;82.30
25450;DHT22;13371;52.080;5.624;2023-05-24T11:50:40;18.00;82.00
25450;DHT22;13371;52.080;5.624;2023-05-24T11:53:13;17.80;81.70
25450;DHT22;13371;52.080;5.624;2023-05-24T11:55:39;17.90;84.40
25450;DHT22;13371;52.080;5.624;2023-05-24T12:00:46;18.10;82.10
25450;DHT22;13371;52.080;5.624;2023-05-24T12:03:12;18.30;83.70
25450;DHT22;13371;52.080;5.624;2023-05-24T12:05:37;18.20;80.90
25450;DHT22;13371;52.080;5.624;2023-05-24T12:08:11;18.20;81.50
25450;DHT22;13371;52.080;5.624;2023-05-24T12:10:38;18.20;85.20
25450;DHT22;13371;52.080;5.624;2023-05-24T12:13:25;18.60;80.60
25450;DHT22;13371;52.080;5.624;2023-05-24T12:15:52;18.70;80.90
25450;DHT22;13371;52.080;5.624;2023-05-24T12:18:19;18.90;81.40
25450;DHT22;13371;52.080;5.624;2023-05-24T12:20:47;18.80;80.30
25450;DHT22;13371;52.080;5.624;2023-05-24T12:23:13;18.70;81.30
25450;DHT22;13371;52.080;5.624;2023-05-24T12:25:39;18.60;81.50
25450;DHT22;13371;52.080;5.624;2023-05-24T12:28:05;18.70;83.00
25450;DHT22;13371;52.080;5.624;2023-05-24T12:30:30;18.50;81.60
25450;DHT22;13371;52.080;5.624;2023-05-24T12:32:56;18.80;80.60
25450;DHT22;13371;52.080;5.624;2023-05-24T12:35:22;18.70;80.50
25450;DHT22;13371;52.080;5.624;2023-05-24T12:37:48;18.30;82.10
25450;DHT22;13371;52.080;5.624;2023-05-24T12:40:19;18.20;82.30
25450;DHT22;13371;52.080;5.624;2023-05-24T12:42:55;18.30;82.10
25450;DHT22;13371;52.080;5.624;2023-05-24T12:45:22;18.20;82.70
25450;DHT22;13371;52.080;5.624;2023-05-24T12:47:59;18.40;83.90
25450;DHT22;13371;52.080;5.624;2023-05-24T12:50:27;18.60;84.10
25450;DHT22;13371;52.080;5.624;2023-05-24T12:52:52;18.90;82.60
25450;DHT22;13371;52.080;5.624;2023-05-24T12:55:23;19.00;78.20
25450;DHT22;13371;52.080;5.624;2023-05-24T12:57:53;19.00;80.00
25450;DHT22;13371;52.080;5.624;2023-05-24T13:00:21;18.60;79.30
25450;DHT22;13371;52.080;5.624;2023-05-24T13:02:47;18.70;81.70
25450;DHT22;13371;52.080;5.624;2023-05-24T13:05:13;19.10;81.80
25450;DHT22;13371;52.080;5.624;2023-05-24T13:07:41;19.30;79.80
25450;DHT22;13371;52.080;5.624;2023-05-24T13:10:07;19.20;80.90
25450;DHT22;13371;52.080;5.624;2023-05-24T13:12:33;19.20;79.30
25450;DHT22;13371;52.080;5.624;2023-05-24T13:14:58;19.40;83.60
25450;DHT22;13371;52.080;5.624;2023-05-24T13:17:24;19.90;82.30
25450;DHT22;13371;52.080;5.624;2023-05-24T13:19:50;19.90;79.20
25450;DHT22;13371;52.080;5.624;2023-05-24T13:22:16;19.80;77.30
25450;DHT22;13371;52.080;5.624;2023-05-24T13:24:41;19.70;76.80
25450;DHT22;13371;52.080;5.624;2023-05-24T13:27:07;19.60;77.30
25450;DHT22;13371;52.080;5.624;2023-05-24T13:29:33;19.70;79.30
25450;DHT22;13371;52.080;5.624;2023-05-24T13:31:58;19.60;79.70
25450;DHT22;13371;52.080;5.624;2023-05-24T13:34:24;19.50;80.10
25450;DHT22;13371;52.080;5.624;2023-05-24T13:36:52;19.80;77.90
25450;DHT22;13371;52.080;5.624;2023-05-24T13:39:19;20.00;79.50
25450;DHT22;13371;52.080;5.624;2023-05-24T13:41:45;19.90;80.60
25450;DHT22;13371;52.080;5.624;2023-05-24T13:44:12;20.20;76.80
25450;DHT22;13371;52.080;5.624;2023-05-24T13:46:38;20.20;76.50
25450;DHT22;13371;52.080;5.624;2023-05-24T13:49:05;20.00;76.90
25450;DHT22;13371;52.080;5.624;2023-05-24T13:51:31;19.80;76.60
25450;DHT22;13371;52.080;5.624;2023-05-24T13:53:57;19.40;76.50
25450;DHT22;13371;52.080;5.624;2023-05-24T13:56:23;19.60;77.60
25450;DHT22;13371;52.080;5.624;2023-05-24T13:58:49;19.60;78.50
25450;DHT22;13371;52.080;5.624;2023-05-24T14:01:15;19.50;77.50
25450;DHT22;13371;52.080;5.624;2023-05-24T14:03:41;19.70;80.10
25450;DHT22;13371;52.080;5.624;2023-05-24T14:06:07;19.90;78.90
25450;DHT22;13371;52.080;5.624;2023-05-24T14:08:33;20.30;77.10
25450;DHT22;13371;52.080;5.624;2023-05-24T14:10:58;20.30;77.40
25450;DHT22;13371;52.080;5.624;2023-05-24T14:13:24;20.40;76.60
25450;DHT22;13371;52.080;5.624;2023-05-24T14:15:51;20.50;77.70
25450;DHT22;13371;52.080;5.624;2023-05-24T14:18:16;20.50;74.40
25450;DHT22;13371;52.080;5.624;2023-05-24T14:20:42;20.30;75.40
25450;DHT22;13371;52.080;5.624;2023-05-24T14:23:08;20.00;75.30
25450;DHT22;13371;52.080;5.624;2023-05-24T14:25:34;19.70;77.80
25450;DHT22;13371;52.080;5.624;2023-05-24T14:28:00;19.50;77.70
25450;DHT22;13371;52.080;5.624;2023-05-24T14:30:29;19.20;76.30
25450;DHT22;13371;52.080;5.624;2023-05-24T14:32:54;19.00;78.20
25450;DHT22;13371;52.080;5.624;2023-05-24T14:35:20;18.70;77.30
25450;DHT22;13371;52.080;5.624;2023-05-24T14:37:46;18.80;81.10
25450;DHT22;13371;52.080;5.624;2023-05-24T14:40:12;18.60;78.00
25450;DHT22;13371;52.080;5.624;2023-05-24T14:42:38;18.80;81.00
25450;DHT22;13371;52.080;5.624;2023-05-24T14:45:03;19.00;78.90
25450;DHT22;13371;52.080;5.624;2023-05-24T14:47:29;19.00;78.50
25450;DHT22;13371;52.080;5.624;2023-05-24T14:49:55;18.60;79.10
25450;DHT22;13371;52.080;5.624;2023-05-24T14:52:20;18.30;79.10
25450;DHT22;13371;52.080;5.624;2023-05-24T14:54:46;18.30;80.40
25450;DHT22;13371;52.080;5.624;2023-05-24T14:57:12;18.40;80.20
25450;DHT22;13371;52.080;5.624;2023-05-24T14:59:37;18.60;80.60
25450;DHT22;13371;52.080;5.624;2023-05-24T15:02:03;18.70;78.90
25450;DHT22;13371;52.080;5.624;2023-05-24T15:04:28;18.80;78.30
25450;DHT22;13371;52.080;5.624;2023-05-24T15:06:54;18.90;80.00
25450;DHT22;13371;52.080;5.624;2023-05-24T15:09:20;18.80;76.80
25450;DHT22;13371;52.080;5.624;2023-05-24T15:11:45;18.90;78.10
25450;DHT22;13371;52.080;5.624;2023-05-24T15:14:11;19.00;78.50
25450;DHT22;13371;52.080;5.624;2023-05-24T15:16:37;19.00;78.30
25450;DHT22;13371;52.080;5.624;2023-05-24T15:19:02;18.80;78.90
25450;DHT22;13371;52.080;5.624;2023-05-24T15:21:28;18.80;78.50
25450;DHT22;13371;52.080;5.624;2023-05-24T15:23:53;18.50;79.60
25450;DHT22;13371;52.080;5.624;2023-05-24T15:26:19;18.20;80.00
25450;DHT22;13371;52.080;5.624;2023-05-24T15:28:45;18.00;79.60
25450;DHT22;13371;52.080;5.624;2023-05-24T15:31:11;17.90;80.30
25450;DHT22;13371;52.080;5.624;2023-05-24T15:33:36;18.10;81.80
25450;DHT22;13371;52.080;5.624;2023-05-24T15:36:03;18.10;81.20
25450;DHT22;13371;52.080;5.624;2023-05-24T15:38:28;17.60;80.60
25450;DHT22;13371;52.080;5.624;2023-05-24T15:40:54;17.40;81.00
25450;DHT22;13371;52.080;5.624;2023-05-24T15:43:22;17.20;81.60
25450;DHT22;13371;52.080;5.624;2023-05-24T15:45:47;17.30;80.90
25450;DHT22;13371;52.080;5.624;2023-05-24T15:48:13;17.30;81.50
25450;DHT22;13371;52.080;5.624;2023-05-24T15:50:39;17.50;81.90
25450;DHT22;13371;52.080;5.624;2023-05-24T15:53:05;17.50;83.40
25450;DHT22;13371;52.080;5.624;2023-05-24T15:55:31;17.30;82.40
25450;DHT22;13371;52.080;5.624;2023-05-24T15:58:01;17.60;82.80
25450;DHT22;13371;52.080;5.624;2023-05-24T16:00:26;17.80;82.40